sensor_id;sensor_type;location;lat;lon;timestamp;P1;durP1;ratioP1;P2;durP2;ratioP2
74328;SDS011;62745;51.060;13.786;2023-02-11T00:01:09;24.98;;;12.70;;
74328;SDS011;62745;51.060;13.786;2023-02-11T00:03:41;25.02;;;12.05;;
74328;SDS011;62745;51.060;13.786;2023-02-11T00:06:06;26.23;;;12.33;;
74328;SDS011;62745;51.060;13.786;2023-02-11T00:08:34;25.88;;;12.13;;
74328;SDS011;62745;51.060;13.786;2023-02-11T00:10:59;27.87;;;12.27;;
74328;SDS011;62745;51.060;13.786;2023-02-11T00:13:25;25.50;;;12.45;;
74328;SDS011;62745;51.060;13.786;2023-02-11T00:15:51;26.30;;;11.40;;
74328;SDS011;62745;51.060;13.786;2023-02-11T00:18:17;24.08;;;10.93;;
74328;SDS011;62745;51.060;13.786;2023-02-11T00:20:43;26.65;;;11.85;;
74328;SDS011;62745;51.060;13.786;2023-02-11T00:23:08;27.43;;;12.03;;
74328;SDS011;62745;51.060;13.786;2023-02-11T00:25:37;24.42;;;11.65;;
74328;SDS011;62745;51.060;13.786;2023-02-11T00:28:04;28.33;;;11.23;;
74328;SDS011;62745;51.060;13.786;2023-02-11T00:30:29;26.57;;;10.37;;
74328;SDS011;62745;51.060;13.786;2023-02-11T00:32:54;22.87;;;11.13;;
74328;SDS011;62745;51.060;13.786;2023-02-11T00:35:20;26.97;;;11.03;;
74328;SDS011;62745;51.060;13.786;2023-02-11T00:37:45;21.67;;;11.40;;
74328;SDS011;62745;51.060;13.786;2023-02-11T00:40:10;25.33;;;11.57;;
74328;SDS011;62745;51.060;13.786;2023-02-11T00:42:36;28.58;;;12.27;;
74328;SDS011;62745;51.060;13.786;2023-02-11T00:45:01;25.63;;;12.03;;
74328;SDS011;62745;51.060;13.786;2023-02-11T00:47:27;29.70;;;12.13;;
74328;SDS011;62745;51.060;13.786;2023-02-11T00:49:52;27.97;;;12.40;;
74328;SDS011;62745;51.060;13.786;2023-02-11T00:52:18;28.93;;;11.40;;
74328;SDS011;62745;51.060;13.786;2023-02-11T00:54:43;30.42;;;11.65;;
74328;SDS011;62745;51.060;13.786;2023-02-11T00:57:08;26.47;;;11.60;;
74328;SDS011;62745;51.060;13.786;2023-02-11T00:59:34;25.43;;;11.37;;
74328;SDS011;62745;51.060;13.786;2023-02-11T01:01:59;27.37;;;11.07;;
74328;SDS011;62745;51.060;13.786;2023-02-11T01:04:24;19.67;;;10.47;;
74328;SDS011;62745;51.060;13.786;2023-02-11T01:06:49;23.83;;;10.37;;
74328;SDS011;62745;51.060;13.786;2023-02-11T01:09:15;25.67;;;12.73;;
74328;SDS011;62745;51.060;13.786;2023-02-11T01:11:40;24.77;;;10.93;;
74328;SDS011;62745;51.060;13.786;2023-02-11T01:14:05;26.37;;;12.53;;
74328;SDS011;62745;51.060;13.786;2023-02-11T01:16:30;26.55;;;11.35;;
74328;SDS011;62745;51.060;13.786;2023-02-11T01:18:56;25.07;;;11.70;;
74328;SDS011;62745;51.060;13.786;2023-02-11T01:21:22;27.20;;;11.88;;
74328;SDS011;62745;51.060;13.786;2023-02-11T01:23:48;22.97;;;11.27;;
74328;SDS011;62745;51.060;13.786;2023-02-11T01:26:13;27.70;;;11.53;;
74328;SDS011;62745;51.060;13.786;2023-02-11T01:28:38;24.57;;;11.67;;
74328;SDS011;62745;51.060;13.786;2023-02-11T01:31:04;23.05;;;11.88;;
74328;SDS011;62745;51.060;13.786;2023-02-11T01:33:29;25.20;;;11.57;;
74328;SDS011;62745;51.060;13.786;2023-02-11T01:35:54;23.87;;;11.23;;
74328;SDS011;62745;51.060;13.786;2023-02-11T01:38:20;26.77;;;12.43;;
74328;SDS011;62745;51.060;13.786;2023-02-11T01:40:51;29.40;;;13.68;;
74328;SDS011;62745;51.060;13.786;2023-02-11T01:43:18;24.77;;;11.75;;
74328;SDS011;62745;51.060;13.786;2023-02-11T01:48:10;23.13;;;11.52;;
74328;SDS011;62745;51.060;13.786;2023-02-11T01:50:38;24.80;;;12.50;;
74328;SDS011;62745;51.060;13.786;2023-02-11T01:53:05;21.85;;;11.45;;
74328;SDS011;62745;51.060;13.786;2023-02-11T01:55:50;25.95;;;12.18;;
74328;SDS011;62745;51.060;13.786;2023-02-11T01:58:36;23.17;;;11.10;;
74328;SDS011;62745;51.060;13.786;2023-02-11T02:01:05;25.35;;;12.30;;
74328;SDS011;62745;51.060;13.786;2023-02-11T02:03:32;24.85;;;12.07;;
74328;SDS011;62745;51.060;13.786;2023-02-11T02:08:50;26.70;;;12.68;;
74328;SDS011;62745;51.060;13.786;2023-02-11T02:11:20;25.02;;;11.98;;
74328;SDS011;62745;51.060;13.786;2023-02-11T02:13:46;23.17;;;12.18;;
74328;SDS011;62745;51.060;13.786;2023-02-11T02:16:12;28.07;;;13.33;;
74328;SDS011;62745;51.060;13.786;2023-02-11T02:18:55;25.45;;;12.75;;
74328;SDS011;62745;51.060;13.786;2023-02-11T02:30:52;27.55;;;12.55;;
74328;SDS011;62745;51.060;13.786;2023-02-11T02:34:11;25.80;;;12.43;;
74328;SDS011;62745;51.060;13.786;2023-02-11T02:39:07;25.92;;;13.25;;
74328;SDS011;62745;51.060;13.786;2023-02-11T02:41:38;26.90;;;12.90;;
74328;SDS011;62745;51.060;13.786;2023-02-11T02:44:05;26.50;;;13.38;;
74328;SDS011;62745;51.060;13.786;2023-02-11T02:46:32;25.75;;;12.73;;
74328;SDS011;62745;51.060;13.786;2023-02-11T02:48:59;24.40;;;12.73;;
74328;SDS011;62745;51.060;13.786;2023-02-11T02:54:23;24.55;;;11.63;;
74328;SDS011;62745;51.060;13.786;2023-02-11T03:00:09;24.92;;;12.05;;
74328;SDS011;62745;51.060;13.786;2023-02-11T03:05:29;29.48;;;13.35;;
74328;SDS011;62745;51.060;13.786;2023-02-11T03:08:24;26.98;;;11.70;;
74328;SDS011;62745;51.060;13.786;2023-02-11T03:10:56;23.75;;;12.73;;
74328;SDS011;62745;51.060;13.786;2023-02-11T03:13:26;23.40;;;11.45;;
74328;SDS011;62745;51.060;13.786;2023-02-11T03:15:57;25.85;;;11.75;;
74328;SDS011;62745;51.060;13.786;2023-02-11T03:18:28;25.25;;;12.70;;
74328;SDS011;62745;51.060;13.786;2023-02-11T03:20:57;26.25;;;12.60;;
74328;SDS011;62745;51.060;13.786;2023-02-11T03:23:28;27.58;;;12.88;;
74328;SDS011;62745;51.060;13.786;2023-02-11T03:31:55;20.98;;;10.95;;
74328;SDS011;62745;51.060;13.786;2023-02-11T03:34:28;26.67;;;11.93;;
74328;SDS011;62745;51.060;13.786;2023-02-11T03:37:01;20.02;;;10.85;;
74328;SDS011;62745;51.060;13.786;2023-02-11T03:39:34;25.58;;;11.55;;
74328;SDS011;62745;51.060;13.786;2023-02-11T03:42:02;25.30;;;13.07;;
74328;SDS011;62745;51.060;13.786;2023-02-11T03:44:35;29.90;;;12.85;;
74328;SDS011;62745;51.060;13.786;2023-02-11T03:47:08;26.58;;;12.43;;
74328;SDS011;62745;51.060;13.786;2023-02-11T03:49:37;26.48;;;12.85;;
74328;SDS011;62745;51.060;13.786;2023-02-11T03:52:04;27.02;;;13.63;;
74328;SDS011;62745;51.060;13.786;2023-02-11T03:54:31;26.00;;;11.82;;
74328;SDS011;62745;51.060;13.786;2023-02-11T03:56:59;23.60;;;12.95;;
74328;SDS011;62745;51.060;13.786;2023-02-11T03:59:28;24.77;;;12.68;;
74328;SDS011;62745;51.060;13.786;2023-02-11T04:01:53;25.93;;;13.47;;
74328;SDS011;62745;51.060;13.786;2023-02-11T04:04:19;25.17;;;12.07;;
74328;SDS011;62745;51.060;13.786;2023-02-11T04:06:44;26.15;;;12.27;;
74328;SDS011;62745;51.060;13.786;2023-02-11T04:09:10;27.57;;;13.50;;
74328;SDS011;62745;51.060;13.786;2023-02-11T04:11:35;25.98;;;14.10;;
74328;SDS011;62745;51.060;13.786;2023-02-11T04:14:01;22.20;;;11.13;;
74328;SDS011;62745;51.060;13.786;2023-02-11T04:16:26;29.47;;;13.67;;
74328;SDS011;62745;51.060;13.786;2023-02-11T04:18:51;22.17;;;11.93;;
74328;SDS011;62745;51.060;13.786;2023-02-11T04:21:16;28.70;;;13.50;;
74328;SDS011;62745;51.060;13.786;2023-02-11T04:23:42;28.55;;;14.48;;
74328;SDS011;62745;51.060;13.786;2023-02-11T04:26:07;26.53;;;13.47;;
74328;SDS011;62745;51.060;13.786;2023-02-11T04:28:36;34.80;;;14.03;;
74328;SDS011;62745;51.060;13.786;2023-02-11T04:31:01;28.55;;;13.25;;
74328;SDS011;62745;51.060;13.786;2023-02-11T04:33:26;30.43;;;13.53;;
74328;SDS011;62745;51.060;13.786;2023-02-11T04:35:51;27.33;;;12.80;;
74328;SDS011;62745;51.060;13.786;2023-02-11T04:38:17;26.33;;;13.63;;
74328;SDS011;62745;51.060;13.786;2023-02-11T04:40:42;26.75;;;13.10;;
74328;SDS011;62745;51.060;13.786;2023-02-11T04:43:10;27.47;;;12.43;;
74328;SDS011;62745;51.060;13.786;2023-02-11T04:45:35;23.75;;;12.13;;
74328;SDS011;62745;51.060;13.786;2023-02-11T04:48:01;25.80;;;11.77;;
74328;SDS011;62745;51.060;13.786;2023-02-11T04:50:27;30.65;;;13.93;;
74328;SDS011;62745;51.060;13.786;2023-02-11T04:52:53;27.70;;;13.43;;
74328;SDS011;62745;51.060;13.786;2023-02-11T04:55:18;25.40;;;10.90;;
74328;SDS011;62745;51.060;13.786;2023-02-11T04:57:43;27.10;;;13.07;;
74328;SDS011;62745;51.060;13.786;2023-02-11T05:00:08;32.03;;;14.57;;
74328;SDS011;62745;51.060;13.786;2023-02-11T05:02:34;26.05;;;13.18;;
74328;SDS011;62745;51.060;13.786;2023-02-11T05:05:00;30.92;;;13.80;;
74328;SDS011;62745;51.060;13.786;2023-02-11T05:07:25;28.95;;;13.38;;
74328;SDS011;62745;51.060;13.786;2023-02-11T05:09:51;25.10;;;12.30;;
74328;SDS011;62745;51.060;13.786;2023-02-11T05:12:16;26.43;;;13.63;;
74328;SDS011;62745;51.060;13.786;2023-02-11T05:14:41;31.57;;;14.27;;
74328;SDS011;62745;51.060;13.786;2023-02-11T05:17:06;31.17;;;15.93;;
74328;SDS011;62745;51.060;13.786;2023-02-11T05:19:32;31.52;;;14.43;;
74328;SDS011;62745;51.060;13.786;2023-02-11T05:21:57;29.30;;;13.88;;
74328;SDS011;62745;51.060;13.786;2023-02-11T05:24:22;26.27;;;12.65;;
74328;SDS011;62745;51.060;13.786;2023-02-11T05:26:48;26.27;;;13.37;;
74328;SDS011;62745;51.060;13.786;2023-02-11T05:29:13;30.77;;;14.25;;
74328;SDS011;62745;51.060;13.786;2023-02-11T05:31:38;30.97;;;14.40;;
74328;SDS011;62745;51.060;13.786;2023-02-11T05:34:04;27.98;;;14.32;;
74328;SDS011;62745;51.060;13.786;2023-02-11T05:36:29;26.80;;;13.77;;
74328;SDS011;62745;51.060;13.786;2023-02-11T05:38:55;32.17;;;14.27;;
74328;SDS011;62745;51.060;13.786;2023-02-11T05:41:20;27.08;;;13.35;;
74328;SDS011;62745;51.060;13.786;2023-02-11T05:43:48;24.50;;;13.02;;
74328;SDS011;62745;51.060;13.786;2023-02-11T05:46:17;29.10;;;14.40;;
74328;SDS011;62745;51.060;13.786;2023-02-11T05:48:43;31.63;;;14.88;;
74328;SDS011;62745;51.060;13.786;2023-02-11T05:51:08;32.25;;;15.15;;
74328;SDS011;62745;51.060;13.786;2023-02-11T05:53:34;29.10;;;14.40;;
74328;SDS011;62745;51.060;13.786;2023-02-11T05:55:59;29.58;;;14.15;;
74328;SDS011;62745;51.060;13.786;2023-02-11T05:58:25;28.35;;;14.02;;
74328;SDS011;62745;51.060;13.786;2023-02-11T06:00:51;26.10;;;12.43;;
74328;SDS011;62745;51.060;13.786;2023-02-11T06:03:16;32.03;;;14.37;;
74328;SDS011;62745;51.060;13.786;2023-02-11T06:05:42;26.43;;;13.17;;
74328;SDS011;62745;51.060;13.786;2023-02-11T06:08:08;26.25;;;12.65;;
74328;SDS011;62745;51.060;13.786;2023-02-11T06:10:33;26.37;;;12.87;;
74328;SDS011;62745;51.060;13.786;2023-02-11T06:12:59;31.77;;;15.83;;
74328;SDS011;62745;51.060;13.786;2023-02-11T06:15:25;32.15;;;16.73;;
74328;SDS011;62745;51.060;13.786;2023-02-11T06:17:50;28.80;;;14.43;;
74328;SDS011;62745;51.060;13.786;2023-02-11T06:20:16;31.17;;;16.33;;
74328;SDS011;62745;51.060;13.786;2023-02-11T06:22:41;29.63;;;13.80;;
74328;SDS011;62745;51.060;13.786;2023-02-11T06:25:06;26.50;;;13.67;;
74328;SDS011;62745;51.060;13.786;2023-02-11T06:27:32;28.98;;;14.77;;
74328;SDS011;62745;51.060;13.786;2023-02-11T06:29:57;25.07;;;12.10;;
74328;SDS011;62745;51.060;13.786;2023-02-11T06:32:22;27.70;;;12.67;;
74328;SDS011;62745;51.060;13.786;2023-02-11T06:34:47;28.97;;;14.63;;
74328;SDS011;62745;51.060;13.786;2023-02-11T06:37:13;30.00;;;14.33;;
74328;SDS011;62745;51.060;13.786;2023-02-11T06:39:38;29.90;;;15.47;;
74328;SDS011;62745;51.060;13.786;2023-02-11T06:42:03;28.93;;;14.87;;
74328;SDS011;62745;51.060;13.786;2023-02-11T06:44:29;31.70;;;15.83;;
74328;SDS011;62745;51.060;13.786;2023-02-11T06:46:54;30.50;;;14.50;;
74328;SDS011;62745;51.060;13.786;2023-02-11T06:49:19;32.43;;;13.80;;
74328;SDS011;62745;51.060;13.786;2023-02-11T06:51:44;29.83;;;13.93;;
74328;SDS011;62745;51.060;13.786;2023-02-11T06:54:10;29.17;;;13.53;;
74328;SDS011;62745;51.060;13.786;2023-02-11T06:56:38;30.08;;;14.80;;
74328;SDS011;62745;51.060;13.786;2023-02-11T06:59:04;30.23;;;15.77;;
74328;SDS011;62745;51.060;13.786;2023-02-11T07:01:29;26.40;;;12.53;;
74328;SDS011;62745;51.060;13.786;2023-02-11T07:03:55;25.93;;;11.70;;
74328;SDS011;62745;51.060;13.786;2023-02-11T07:06:21;28.63;;;14.20;;
74328;SDS011;62745;51.060;13.786;2023-02-11T07:08:48;30.73;;;13.07;;
74328;SDS011;62745;51.060;13.786;2023-02-11T07:11:15;29.77;;;14.50;;
74328;SDS011;62745;51.060;13.786;2023-02-11T07:13:51;29.55;;;15.48;;
74328;SDS011;62745;51.060;13.786;2023-02-11T07:16:18;30.35;;;14.82;;
74328;SDS011;62745;51.060;13.786;2023-02-11T07:18:44;30.90;;;12.52;;
74328;SDS011;62745;51.060;13.786;2023-02-11T07:21:12;29.00;;;13.68;;
74328;SDS011;62745;51.060;13.786;2023-02-11T07:23:39;29.48;;;13.38;;
74328;SDS011;62745;51.060;13.786;2023-02-11T07:26:12;30.52;;;14.80;;
74328;SDS011;62745;51.060;13.786;2023-02-11T07:28:40;30.92;;;16.05;;
74328;SDS011;62745;51.060;13.786;2023-02-11T07:31:10;29.35;;;14.02;;
74328;SDS011;62745;51.060;13.786;2023-02-11T07:33:37;28.65;;;15.10;;
74328;SDS011;62745;51.060;13.786;2023-02-11T07:36:03;39.25;;;16.75;;
74328;SDS011;62745;51.060;13.786;2023-02-11T07:38:30;35.45;;;15.57;;
74328;SDS011;62745;51.060;13.786;2023-02-11T07:41:00;34.90;;;17.42;;
74328;SDS011;62745;51.060;13.786;2023-02-11T07:43:26;32.38;;;16.30;;
74328;SDS011;62745;51.060;13.786;2023-02-11T07:45:52;30.50;;;15.43;;
74328;SDS011;62745;51.060;13.786;2023-02-11T07:48:17;34.63;;;16.85;;
74328;SDS011;62745;51.060;13.786;2023-02-11T07:50:43;30.83;;;14.50;;
74328;SDS011;62745;51.060;13.786;2023-02-11T07:53:08;31.03;;;14.33;;
74328;SDS011;62745;51.060;13.786;2023-02-11T07:55:33;31.05;;;15.20;;
74328;SDS011;62745;51.060;13.786;2023-02-11T07:57:59;33.43;;;16.13;;
74328;SDS011;62745;51.060;13.786;2023-02-11T08:00:24;35.20;;;15.67;;
74328;SDS011;62745;51.060;13.786;2023-02-11T08:02:49;31.03;;;14.83;;
74328;SDS011;62745;51.060;13.786;2023-02-11T08:05:14;35.97;;;14.83;;
74328;SDS011;62745;51.060;13.786;2023-02-11T08:07:40;33.60;;;16.10;;
74328;SDS011;62745;51.060;13.786;2023-02-11T08:10:05;32.43;;;15.97;;
74328;SDS011;62745;51.060;13.786;2023-02-11T08:12:30;29.65;;;14.85;;
74328;SDS011;62745;51.060;13.786;2023-02-11T08:14:55;25.03;;;13.07;;
74328;SDS011;62745;51.060;13.786;2023-02-11T08:17:21;30.10;;;15.32;;
74328;SDS011;62745;51.060;13.786;2023-02-11T08:19:46;33.83;;;14.98;;
74328;SDS011;62745;51.060;13.786;2023-02-11T08:22:12;34.23;;;15.63;;
74328;SDS011;62745;51.060;13.786;2023-02-11T08:24:37;32.97;;;14.95;;
74328;SDS011;62745;51.060;13.786;2023-02-11T08:27:02;36.17;;;15.43;;
74328;SDS011;62745;51.060;13.786;2023-02-11T08:29:28;31.08;;;14.77;;
74328;SDS011;62745;51.060;13.786;2023-02-11T08:31:53;30.30;;;15.18;;
74328;SDS011;62745;51.060;13.786;2023-02-11T08:34:18;33.73;;;15.50;;
74328;SDS011;62745;51.060;13.786;2023-02-11T08:36:44;29.60;;;14.60;;
74328;SDS011;62745;51.060;13.786;2023-02-11T08:39:12;28.63;;;14.20;;
74328;SDS011;62745;51.060;13.786;2023-02-11T08:41:40;31.90;;;15.88;;
74328;SDS011;62745;51.060;13.786;2023-02-11T08:44:05;34.72;;;14.68;;
74328;SDS011;62745;51.060;13.786;2023-02-11T08:46:31;27.60;;;13.00;;
74328;SDS011;62745;51.060;13.786;2023-02-11T08:48:56;34.23;;;16.33;;
74328;SDS011;62745;51.060;13.786;2023-02-11T08:51:23;28.13;;;13.50;;
74328;SDS011;62745;51.060;13.786;2023-02-11T08:53:51;32.55;;;15.73;;
74328;SDS011;62745;51.060;13.786;2023-02-11T08:56:18;29.48;;;13.57;;
74328;SDS011;62745;51.060;13.786;2023-02-11T08:58:43;25.40;;;13.85;;
74328;SDS011;62745;51.060;13.786;2023-02-11T09:01:17;24.58;;;13.10;;
74328;SDS011;62745;51.060;13.786;2023-02-11T09:03:44;32.70;;;13.27;;
74328;SDS011;62745;51.060;13.786;2023-02-11T09:06:09;30.58;;;15.45;;
74328;SDS011;62745;51.060;13.786;2023-02-11T09:08:36;24.08;;;12.90;;
74328;SDS011;62745;51.060;13.786;2023-02-11T09:11:03;27.27;;;13.20;;
74328;SDS011;62745;51.060;13.786;2023-02-11T09:13:29;27.70;;;14.23;;
74328;SDS011;62745;51.060;13.786;2023-02-11T09:15:55;27.05;;;15.38;;
74328;SDS011;62745;51.060;13.786;2023-02-11T09:18:21;28.60;;;13.77;;
74328;SDS011;62745;51.060;13.786;2023-02-11T09:20:47;31.47;;;14.07;;
74328;SDS011;62745;51.060;13.786;2023-02-11T09:23:12;29.80;;;14.20;;
74328;SDS011;62745;51.060;13.786;2023-02-11T09:25:38;31.27;;;15.38;;
74328;SDS011;62745;51.060;13.786;2023-02-11T09:28:05;28.42;;;14.73;;
74328;SDS011;62745;51.060;13.786;2023-02-11T09:30:30;26.20;;;12.40;;
74328;SDS011;62745;51.060;13.786;2023-02-11T09:32:55;29.67;;;14.63;;
74328;SDS011;62745;51.060;13.786;2023-02-11T09:35:21;29.83;;;15.73;;
74328;SDS011;62745;51.060;13.786;2023-02-11T09:37:46;33.37;;;15.20;;
74328;SDS011;62745;51.060;13.786;2023-02-11T09:40:11;33.23;;;15.83;;
74328;SDS011;62745;51.060;13.786;2023-02-11T09:42:41;29.02;;;13.85;;
74328;SDS011;62745;51.060;13.786;2023-02-11T09:45:16;29.88;;;13.95;;
74328;SDS011;62745;51.060;13.786;2023-02-11T09:47:54;26.73;;;12.82;;
74328;SDS011;62745;51.060;13.786;2023-02-11T09:50:32;28.80;;;13.00;;
74328;SDS011;62745;51.060;13.786;2023-02-11T09:55:47;33.53;;;14.82;;
74328;SDS011;62745;51.060;13.786;2023-02-11T09:58:24;29.58;;;14.07;;
74328;SDS011;62745;51.060;13.786;2023-02-11T10:06:28;31.77;;;15.57;;
74328;SDS011;62745;51.060;13.786;2023-02-11T10:12:00;30.10;;;15.10;;
74328;SDS011;62745;51.060;13.786;2023-02-11T10:17:42;29.10;;;14.43;;
74328;SDS011;62745;51.060;13.786;2023-02-11T10:20:37;28.58;;;12.75;;
74328;SDS011;62745;51.060;13.786;2023-02-11T10:23:14;32.38;;;17.02;;
74328;SDS011;62745;51.060;13.786;2023-02-11T10:25:45;33.22;;;15.65;;
74328;SDS011;62745;51.060;13.786;2023-02-11T10:28:15;28.00;;;14.50;;
74328;SDS011;62745;51.060;13.786;2023-02-11T10:30:51;30.02;;;15.38;;
74328;SDS011;62745;51.060;13.786;2023-02-11T10:35:56;31.98;;;12.93;;
74328;SDS011;62745;51.060;13.786;2023-02-11T10:38:21;27.60;;;14.23;;
74328;SDS011;62745;51.060;13.786;2023-02-11T10:40:47;31.53;;;15.57;;
74328;SDS011;62745;51.060;13.786;2023-02-11T10:43:13;32.77;;;15.40;;
74328;SDS011;62745;51.060;13.786;2023-02-11T10:45:44;29.17;;;14.05;;
74328;SDS011;62745;51.060;13.786;2023-02-11T10:51:22;29.50;;;13.77;;
74328;SDS011;62745;51.060;13.786;2023-02-11T10:54:09;26.60;;;13.27;;
74328;SDS011;62745;51.060;13.786;2023-02-11T10:56:48;29.60;;;14.82;;
74328;SDS011;62745;51.060;13.786;2023-02-11T10:59:29;33.78;;;15.52;;
74328;SDS011;62745;51.060;13.786;2023-02-11T11:02:04;27.13;;;14.02;;
74328;SDS011;62745;51.060;13.786;2023-02-11T11:04:45;26.02;;;13.50;;
74328;SDS011;62745;51.060;13.786;2023-02-11T11:07:12;29.73;;;13.32;;
74328;SDS011;62745;51.060;13.786;2023-02-11T11:09:48;28.45;;;14.95;;
74328;SDS011;62745;51.060;13.786;2023-02-11T11:12:25;29.05;;;15.60;;
74328;SDS011;62745;51.060;13.786;2023-02-11T11:17:34;27.37;;;13.23;;
74328;SDS011;62745;51.060;13.786;2023-02-11T11:22:51;30.98;;;15.27;;
74328;SDS011;62745;51.060;13.786;2023-02-11T11:25:33;24.75;;;13.15;;
74328;SDS011;62745;51.060;13.786;2023-02-11T11:28:02;27.10;;;13.52;;
74328;SDS011;62745;51.060;13.786;2023-02-11T11:30:32;28.38;;;13.60;;
74328;SDS011;62745;51.060;13.786;2023-02-11T11:33:03;23.25;;;12.52;;
74328;SDS011;62745;51.060;13.786;2023-02-11T11:35:29;25.83;;;12.98;;
74328;SDS011;62745;51.060;13.786;2023-02-11T11:38:00;29.95;;;14.55;;
74328;SDS011;62745;51.060;13.786;2023-02-11T11:40:29;24.65;;;13.25;;
74328;SDS011;62745;51.060;13.786;2023-02-11T11:45:27;28.98;;;13.32;;
74328;SDS011;62745;51.060;13.786;2023-02-11T11:50:48;31.00;;;14.32;;
74328;SDS011;62745;51.060;13.786;2023-02-11T11:55:44;29.30;;;13.97;;
74328;SDS011;62745;51.060;13.786;2023-02-11T11:58:16;32.55;;;15.73;;
74328;SDS011;62745;51.060;13.786;2023-02-11T12:00:57;22.98;;;12.30;;
74328;SDS011;62745;51.060;13.786;2023-02-11T12:12:15;25.23;;;13.07;;
74328;SDS011;62745;51.060;13.786;2023-02-11T12:18:00;28.35;;;12.60;;
74328;SDS011;62745;51.060;13.786;2023-02-11T12:26:11;29.58;;;14.32;;
74328;SDS011;62745;51.060;13.786;2023-02-11T12:28:52;25.88;;;12.63;;
74328;SDS011;62745;51.060;13.786;2023-02-11T12:37:18;26.58;;;12.70;;
74328;SDS011;62745;51.060;13.786;2023-02-11T12:42:29;25.08;;;12.48;;
74328;SDS011;62745;51.060;13.786;2023-02-11T12:45:30;25.10;;;13.05;;
74328;SDS011;62745;51.060;13.786;2023-02-11T12:48:15;28.33;;;13.52;;
74328;SDS011;62745;51.060;13.786;2023-02-11T12:54:12;23.20;;;12.40;;
74328;SDS011;62745;51.060;13.786;2023-02-11T12:56:49;27.52;;;13.13;;
74328;SDS011;62745;51.060;13.786;2023-02-11T12:59:32;23.60;;;12.10;;
74328;SDS011;62745;51.060;13.786;2023-02-11T13:02:09;28.90;;;14.70;;
74328;SDS011;62745;51.060;13.786;2023-02-11T13:04:40;21.05;;;11.60;;
74328;SDS011;62745;51.060;13.786;2023-02-11T13:07:15;27.20;;;13.50;;
74328;SDS011;62745;51.060;13.786;2023-02-11T13:10:10;26.05;;;11.70;;
74328;SDS011;62745;51.060;13.786;2023-02-11T13:12:37;30.63;;;14.02;;
74328;SDS011;62745;51.060;13.786;2023-02-11T13:15:24;24.90;;;11.98;;
74328;SDS011;62745;51.060;13.786;2023-02-11T13:17:53;27.45;;;13.85;;
74328;SDS011;62745;51.060;13.786;2023-02-11T13:23:43;24.88;;;12.60;;
74328;SDS011;62745;51.060;13.786;2023-02-11T13:26:32;26.25;;;12.60;;
74328;SDS011;62745;51.060;13.786;2023-02-11T13:29:17;24.92;;;11.95;;
74328;SDS011;62745;51.060;13.786;2023-02-11T13:31:54;29.15;;;13.10;;
74328;SDS011;62745;51.060;13.786;2023-02-11T13:39:57;25.92;;;12.77;;
74328;SDS011;62745;51.060;13.786;2023-02-11T13:42:28;29.50;;;12.82;;
74328;SDS011;62745;51.060;13.786;2023-02-11T13:44:56;27.55;;;12.88;;
74328;SDS011;62745;51.060;13.786;2023-02-11T13:47:32;22.77;;;12.13;;
74328;SDS011;62745;51.060;13.786;2023-02-11T13:50:02;23.23;;;11.43;;
74328;SDS011;62745;51.060;13.786;2023-02-11T13:52:47;23.40;;;12.35;;
74328;SDS011;62745;51.060;13.786;2023-02-11T13:55:22;25.92;;;12.15;;
74328;SDS011;62745;51.060;13.786;2023-02-11T14:04:04;26.60;;;13.65;;
74328;SDS011;62745;51.060;13.786;2023-02-11T14:06:11;24.35;;;11.60;;
74328;SDS011;62745;51.060;13.786;2023-02-11T14:09:00;26.17;;;12.15;;
74328;SDS011;62745;51.060;13.786;2023-02-11T14:14:19;25.50;;;11.88;;
74328;SDS011;62745;51.060;13.786;2023-02-11T14:17:15;27.40;;;12.70;;
74328;SDS011;62745;51.060;13.786;2023-02-11T14:19:37;26.73;;;12.35;;
74328;SDS011;62745;51.060;13.786;2023-02-11T14:22:05;22.85;;;11.85;;
74328;SDS011;62745;51.060;13.786;2023-02-11T14:29:36;23.00;;;13.00;;
74328;SDS011;62745;51.060;13.786;2023-02-11T14:32:18;26.95;;;12.52;;
74328;SDS011;62745;51.060;13.786;2023-02-11T14:40:45;22.55;;;11.70;;
74328;SDS011;62745;51.060;13.786;2023-02-11T14:43:21;25.63;;;13.15;;
74328;SDS011;62745;51.060;13.786;2023-02-11T14:45:50;25.20;;;12.48;;
74328;SDS011;62745;51.060;13.786;2023-02-11T14:48:19;28.75;;;12.38;;
74328;SDS011;62745;51.060;13.786;2023-02-11T14:50:52;29.30;;;13.57;;
74328;SDS011;62745;51.060;13.786;2023-02-11T14:53:23;26.45;;;12.45;;
74328;SDS011;62745;51.060;13.786;2023-02-11T14:55:50;25.90;;;12.55;;
74328;SDS011;62745;51.060;13.786;2023-02-11T14:58:18;28.02;;;12.98;;
74328;SDS011;62745;51.060;13.786;2023-02-11T15:00:52;25.45;;;12.70;;
74328;SDS011;62745;51.060;13.786;2023-02-11T15:03:27;22.40;;;12.35;;
74328;SDS011;62745;51.060;13.786;2023-02-11T15:06:15;23.13;;;11.68;;
74328;SDS011;62745;51.060;13.786;2023-02-11T15:11:20;26.00;;;13.05;;
74328;SDS011;62745;51.060;13.786;2023-02-11T15:13:47;26.55;;;10.98;;
74328;SDS011;62745;51.060;13.786;2023-02-11T15:16:19;24.77;;;13.00;;
74328;SDS011;62745;51.060;13.786;2023-02-11T15:18:48;24.77;;;12.05;;
74328;SDS011;62745;51.060;13.786;2023-02-11T15:21:25;28.23;;;12.43;;
74328;SDS011;62745;51.060;13.786;2023-02-11T15:23:58;25.00;;;11.60;;
74328;SDS011;62745;51.060;13.786;2023-02-11T15:26:25;22.23;;;12.20;;
74328;SDS011;62745;51.060;13.786;2023-02-11T15:28:51;25.20;;;12.48;;
74328;SDS011;62745;51.060;13.786;2023-02-11T15:31:18;19.85;;;10.43;;
74328;SDS011;62745;51.060;13.786;2023-02-11T15:33:47;24.55;;;12.90;;
74328;SDS011;62745;51.060;13.786;2023-02-11T15:36:12;25.93;;;11.80;;
74328;SDS011;62745;51.060;13.786;2023-02-11T15:38:39;25.50;;;12.20;;
74328;SDS011;62745;51.060;13.786;2023-02-11T15:41:05;25.45;;;12.98;;
74328;SDS011;62745;51.060;13.786;2023-02-11T15:43:40;24.20;;;11.65;;
74328;SDS011;62745;51.060;13.786;2023-02-11T15:46:11;24.92;;;11.30;;
74328;SDS011;62745;51.060;13.786;2023-02-11T15:48:41;23.17;;;10.60;;
74328;SDS011;62745;51.060;13.786;2023-02-11T15:53:57;20.95;;;10.57;;
74328;SDS011;62745;51.060;13.786;2023-02-11T15:56:28;23.75;;;13.15;;
74328;SDS011;62745;51.060;13.786;2023-02-11T15:58:57;22.75;;;11.23;;
74328;SDS011;62745;51.060;13.786;2023-02-11T16:01:31;23.15;;;11.77;;
74328;SDS011;62745;51.060;13.786;2023-02-11T16:03:58;20.42;;;11.07;;
74328;SDS011;62745;51.060;13.786;2023-02-11T16:06:25;24.58;;;10.70;;
74328;SDS011;62745;51.060;13.786;2023-02-11T16:16:57;32.10;;;13.73;;
74328;SDS011;62745;51.060;13.786;2023-02-11T16:19:24;20.70;;;10.88;;
74328;SDS011;62745;51.060;13.786;2023-02-11T16:21:51;26.42;;;11.80;;
74328;SDS011;62745;51.060;13.786;2023-02-11T16:24:19;27.27;;;13.50;;
74328;SDS011;62745;51.060;13.786;2023-02-11T16:26:49;21.13;;;11.57;;
74328;SDS011;62745;51.060;13.786;2023-02-11T16:29:21;25.10;;;12.77;;
74328;SDS011;62745;51.060;13.786;2023-02-11T16:31:48;27.58;;;12.43;;
74328;SDS011;62745;51.060;13.786;2023-02-11T16:34:15;28.27;;;13.85;;
74328;SDS011;62745;51.060;13.786;2023-02-11T16:36:42;25.80;;;13.50;;